sensor_id;sensor_type;location;lat;lon;timestamp;P1;durP1;ratioP1;P2;durP2;ratioP2
3349;SDS011;1688;51.000;13.684;2023-05-07T00:01:43;11.30;;;7.30;;
3349;SDS011;1688;51.000;13.684;2023-05-07T00:04:17;16.23;;;7.90;;
3349;SDS011;1688;51.000;13.684;2023-05-07T00:06:53;11.67;;;6.83;;
3349;SDS011;1688;51.000;13.684;2023-05-07T00:09:27;12.30;;;8.70;;
3349;SDS011;1688;51.000;13.684;2023-05-07T00:12:13;18.67;;;7.97;;
3349;SDS011;1688;51.000;13.684;2023-05-07T00:14:41;16.07;;;8.37;;
3349;SDS011;1688;51.000;13.684;2023-05-07T00:17:08;17.60;;;9.20;;
3349;SDS011;1688;51.000;13.684;2023-05-07T00:19:42;12.53;;;8.20;;
3349;SDS011;1688;51.000;13.684;2023-05-07T00:22:15;15.17;;;7.13;;
3349;SDS011;1688;51.000;13.684;2023-05-07T00:24:49;12.43;;;6.70;;
3349;SDS011;1688;51.000;13.684;2023-05-07T00:27:22;16.50;;;8.70;;
3349;SDS011;1688;51.000;13.684;2023-05-07T00:29:55;13.23;;;8.60;;
3349;SDS011;1688;51.000;13.684;2023-05-07T00:32:29;16.37;;;8.27;;
3349;SDS011;1688;51.000;13.684;2023-05-07T00:35:03;12.93;;;7.13;;
3349;SDS011;1688;51.000;13.684;2023-05-07T00:37:36;21.70;;;8.13;;
3349;SDS011;1688;51.000;13.684;2023-05-07T00:40:09;16.10;;;6.60;;
3349;SDS011;1688;51.000;13.684;2023-05-07T00:42:43;16.87;;;6.10;;
3349;SDS011;1688;51.000;13.684;2023-05-07T00:45:19;13.23;;;6.70;;
3349;SDS011;1688;51.000;13.684;2023-05-07T00:47:55;20.17;;;8.20;;
3349;SDS011;1688;51.000;13.684;2023-05-07T00:50:30;19.93;;;8.97;;
3349;SDS011;1688;51.000;13.684;2023-05-07T00:53:04;13.73;;;8.00;;
3349;SDS011;1688;51.000;13.684;2023-05-07T00:55:38;7.37;;;6.67;;
3349;SDS011;1688;51.000;13.684;2023-05-07T00:58:11;12.40;;;6.30;;
3349;SDS011;1688;51.000;13.684;2023-05-07T01:00:44;17.23;;;7.83;;
3349;SDS011;1688;51.000;13.684;2023-05-07T01:03:19;14.70;;;5.77;;
3349;SDS011;1688;51.000;13.684;2023-05-07T01:05:52;19.87;;;9.07;;
3349;SDS011;1688;51.000;13.684;2023-05-07T01:08:27;18.83;;;8.40;;
3349;SDS011;1688;51.000;13.684;2023-05-07T01:11:01;14.40;;;8.70;;
3349;SDS011;1688;51.000;13.684;2023-05-07T01:13:35;17.40;;;7.30;;
3349;SDS011;1688;51.000;13.684;2023-05-07T01:16:09;15.87;;;9.93;;
3349;SDS011;1688;51.000;13.684;2023-05-07T01:18:43;9.90;;;6.60;;
3349;SDS011;1688;51.000;13.684;2023-05-07T01:21:16;11.60;;;6.80;;
3349;SDS011;1688;51.000;13.684;2023-05-07T01:23:50;14.53;;;9.40;;
3349;SDS011;1688;51.000;13.684;2023-05-07T01:26:23;15.80;;;10.33;;
3349;SDS011;1688;51.000;13.684;2023-05-07T01:28:57;25.93;;;8.17;;
3349;SDS011;1688;51.000;13.684;2023-05-07T01:31:30;10.87;;;8.00;;
3349;SDS011;1688;51.000;13.684;2023-05-07T01:34:05;12.73;;;9.90;;
3349;SDS011;1688;51.000;13.684;2023-05-07T01:36:39;12.40;;;9.70;;
3349;SDS011;1688;51.000;13.684;2023-05-07T01:39:13;16.03;;;9.10;;
3349;SDS011;1688;51.000;13.684;2023-05-07T01:41:46;14.20;;;9.70;;
3349;SDS011;1688;51.000;13.684;2023-05-07T01:44:20;12.43;;;7.70;;
3349;SDS011;1688;51.000;13.684;2023-05-07T01:46:53;13.63;;;7.20;;
3349;SDS011;1688;51.000;13.684;2023-05-07T01:49:27;15.80;;;8.33;;
3349;SDS011;1688;51.000;13.684;2023-05-07T01:52:01;13.23;;;7.40;;
3349;SDS011;1688;51.000;13.684;2023-05-07T01:54:34;14.13;;;8.60;;
3349;SDS011;1688;51.000;13.684;2023-05-07T01:57:07;15.70;;;8.53;;
3349;SDS011;1688;51.000;13.684;2023-05-07T01:59:41;18.07;;;8.83;;
3349;SDS011;1688;51.000;13.684;2023-05-07T02:02:14;14.87;;;7.97;;
3349;SDS011;1688;51.000;13.684;2023-05-07T02:04:48;17.50;;;9.40;;
3349;SDS011;1688;51.000;13.684;2023-05-07T02:07:21;12.63;;;8.17;;
3349;SDS011;1688;51.000;13.684;2023-05-07T02:09:54;24.40;;;10.63;;
3349;SDS011;1688;51.000;13.684;2023-05-07T02:12:27;16.47;;;7.53;;
3349;SDS011;1688;51.000;13.684;2023-05-07T02:15:00;22.27;;;9.27;;
3349;SDS011;1688;51.000;13.684;2023-05-07T02:17:34;16.33;;;8.43;;
3349;SDS011;1688;51.000;13.684;2023-05-07T02:20:08;17.10;;;9.57;;
3349;SDS011;1688;51.000;13.684;2023-05-07T02:22:45;13.23;;;8.90;;
3349;SDS011;1688;51.000;13.684;2023-05-07T02:25:18;19.20;;;9.30;;
3349;SDS011;1688;51.000;13.684;2023-05-07T02:27:51;17.67;;;7.57;;
3349;SDS011;1688;51.000;13.684;2023-05-07T02:30:25;11.87;;;7.13;;
3349;SDS011;1688;51.000;13.684;2023-05-07T02:32:58;13.73;;;7.90;;
3349;SDS011;1688;51.000;13.684;2023-05-07T02:35:32;16.27;;;8.60;;
3349;SDS011;1688;51.000;13.684;2023-05-07T02:38:05;18.03;;;8.23;;
3349;SDS011;1688;51.000;13.684;2023-05-07T02:44:07;11.03;;;6.00;;
3349;SDS011;1688;51.000;13.684;2023-05-07T02:46:41;12.83;;;7.47;;
3349;SDS011;1688;51.000;13.684;2023-05-07T02:49:14;17.97;;;7.80;;
3349;SDS011;1688;51.000;13.684;2023-05-07T02:51:47;19.13;;;8.27;;
3349;SDS011;1688;51.000;13.684;2023-05-07T02:54:20;19.63;;;8.93;;
3349;SDS011;1688;51.000;13.684;2023-05-07T02:56:54;12.93;;;8.23;;
3349;SDS011;1688;51.000;13.684;2023-05-07T02:59:27;9.03;;;6.20;;
3349;SDS011;1688;51.000;13.684;2023-05-07T03:02:00;14.00;;;8.07;;
3349;SDS011;1688;51.000;13.684;2023-05-07T03:04:34;18.83;;;8.97;;
3349;SDS011;1688;51.000;13.684;2023-05-07T03:07:07;15.23;;;8.90;;
3349;SDS011;1688;51.000;13.684;2023-05-07T03:09:41;14.03;;;6.83;;
3349;SDS011;1688;51.000;13.684;2023-05-07T03:12:14;16.00;;;9.40;;
3349;SDS011;1688;51.000;13.684;2023-05-07T03:14:47;23.10;;;8.57;;
3349;SDS011;1688;51.000;13.684;2023-05-07T03:17:21;16.53;;;8.60;;
3349;SDS011;1688;51.000;13.684;2023-05-07T03:19:54;13.00;;;8.23;;
3349;SDS011;1688;51.000;13.684;2023-05-07T03:22:27;15.50;;;8.97;;
3349;SDS011;1688;51.000;13.684;2023-05-07T03:25:00;13.77;;;8.27;;
3349;SDS011;1688;51.000;13.684;2023-05-07T03:27:34;9.93;;;6.07;;
3349;SDS011;1688;51.000;13.684;2023-05-07T03:30:07;14.83;;;10.80;;
3349;SDS011;1688;51.000;13.684;2023-05-07T03:32:42;12.20;;;6.53;;
3349;SDS011;1688;51.000;13.684;2023-05-07T03:35:15;11.57;;;7.90;;
3349;SDS011;1688;51.000;13.684;2023-05-07T03:37:48;10.57;;;6.60;;
3349;SDS011;1688;51.000;13.684;2023-05-07T03:40:22;11.07;;;5.30;;
3349;SDS011;1688;51.000;13.684;2023-05-07T03:42:55;7.77;;;6.27;;
3349;SDS011;1688;51.000;13.684;2023-05-07T03:45:29;5.83;;;4.33;;
3349;SDS011;1688;51.000;13.684;2023-05-07T03:48:02;12.73;;;6.77;;
3349;SDS011;1688;51.000;13.684;2023-05-07T03:50:37;11.67;;;6.67;;
3349;SDS011;1688;51.000;13.684;2023-05-07T03:53:10;7.37;;;5.50;;
3349;SDS011;1688;51.000;13.684;2023-05-07T03:55:45;7.03;;;5.50;;
3349;SDS011;1688;51.000;13.684;2023-05-07T03:58:18;16.63;;;6.70;;
3349;SDS011;1688;51.000;13.684;2023-05-07T04:00:51;6.50;;;4.07;;
3349;SDS011;1688;51.000;13.684;2023-05-07T04:03:25;11.07;;;5.53;;
3349;SDS011;1688;51.000;13.684;2023-05-07T04:05:58;8.27;;;4.97;;
3349;SDS011;1688;51.000;13.684;2023-05-07T04:08:31;6.50;;;5.37;;
3349;SDS011;1688;51.000;13.684;2023-05-07T04:11:04;10.03;;;6.27;;
3349;SDS011;1688;51.000;13.684;2023-05-07T04:13:38;9.10;;;5.90;;
3349;SDS011;1688;51.000;13.684;2023-05-07T04:16:11;15.27;;;6.40;;
3349;SDS011;1688;51.000;13.684;2023-05-07T04:18:44;12.87;;;6.23;;
3349;SDS011;1688;51.000;13.684;2023-05-07T04:21:18;12.50;;;5.50;;
3349;SDS011;1688;51.000;13.684;2023-05-07T04:23:52;13.27;;;6.73;;
3349;SDS011;1688;51.000;13.684;2023-05-07T04:26:25;15.83;;;6.70;;
3349;SDS011;1688;51.000;13.684;2023-05-07T04:28:58;6.80;;;5.00;;
3349;SDS011;1688;51.000;13.684;2023-05-07T04:31:32;11.27;;;6.07;;
3349;SDS011;1688;51.000;13.684;2023-05-07T04:34:05;14.27;;;6.10;;
3349;SDS011;1688;51.000;13.684;2023-05-07T04:36:39;20.67;;;7.63;;
3349;SDS011;1688;51.000;13.684;2023-05-07T04:39:12;12.87;;;7.20;;
3349;SDS011;1688;51.000;13.684;2023-05-07T04:41:46;8.43;;;6.43;;
3349;SDS011;1688;51.000;13.684;2023-05-07T04:44:19;10.37;;;7.93;;
3349;SDS011;1688;51.000;13.684;2023-05-07T04:46:52;8.20;;;4.30;;
3349;SDS011;1688;51.000;13.684;2023-05-07T04:49:26;11.27;;;7.47;;
3349;SDS011;1688;51.000;13.684;2023-05-07T04:51:59;13.63;;;4.53;;
3349;SDS011;1688;51.000;13.684;2023-05-07T04:54:33;13.80;;;7.40;;
3349;SDS011;1688;51.000;13.684;2023-05-07T04:57:06;16.57;;;8.50;;
3349;SDS011;1688;51.000;13.684;2023-05-07T04:59:39;12.63;;;5.53;;
3349;SDS011;1688;51.000;13.684;2023-05-07T05:02:13;13.07;;;7.43;;
3349;SDS011;1688;51.000;13.684;2023-05-07T05:04:46;10.33;;;5.03;;
3349;SDS011;1688;51.000;13.684;2023-05-07T05:07:19;8.30;;;6.17;;
3349;SDS011;1688;51.000;13.684;2023-05-07T05:09:52;17.80;;;8.67;;
3349;SDS011;1688;51.000;13.684;2023-05-07T05:12:25;13.13;;;7.53;;
3349;SDS011;1688;51.000;13.684;2023-05-07T05:14:59;17.23;;;7.53;;
3349;SDS011;1688;51.000;13.684;2023-05-07T05:17:32;14.47;;;7.53;;
3349;SDS011;1688;51.000;13.684;2023-05-07T05:20:07;20.87;;;8.67;;
3349;SDS011;1688;51.000;13.684;2023-05-07T05:22:42;17.83;;;7.53;;
3349;SDS011;1688;51.000;13.684;2023-05-07T05:25:15;13.30;;;7.80;;
3349;SDS011;1688;51.000;13.684;2023-05-07T05:27:49;14.60;;;7.43;;
3349;SDS011;1688;51.000;13.684;2023-05-07T05:30:22;11.70;;;6.40;;
3349;SDS011;1688;51.000;13.684;2023-05-07T05:32:55;14.23;;;7.10;;
3349;SDS011;1688;51.000;13.684;2023-05-07T05:35:29;13.50;;;8.50;;
3349;SDS011;1688;51.000;13.684;2023-05-07T05:38:03;13.90;;;9.10;;
3349;SDS011;1688;51.000;13.684;2023-05-07T05:40:36;13.90;;;8.77;;
3349;SDS011;1688;51.000;13.684;2023-05-07T05:43:09;14.60;;;7.27;;
3349;SDS011;1688;51.000;13.684;2023-05-07T05:45:42;9.90;;;6.90;;
3349;SDS011;1688;51.000;13.684;2023-05-07T05:48:16;13.63;;;7.90;;
3349;SDS011;1688;51.000;13.684;2023-05-07T05:50:49;14.10;;;5.83;;
3349;SDS011;1688;51.000;13.684;2023-05-07T05:53:22;5.17;;;3.43;;
3349;SDS011;1688;51.000;13.684;2023-05-07T05:55:56;10.23;;;5.60;;
3349;SDS011;1688;51.000;13.684;2023-05-07T05:58:29;11.57;;;6.10;;
3349;SDS011;1688;51.000;13.684;2023-05-07T06:01:02;8.20;;;5.00;;
3349;SDS011;1688;51.000;13.684;2023-05-07T06:03:36;16.07;;;8.10;;
3349;SDS011;1688;51.000;13.684;2023-05-07T06:06:09;17.37;;;7.63;;
3349;SDS011;1688;51.000;13.684;2023-05-07T06:08:42;14.30;;;8.37;;
3349;SDS011;1688;51.000;13.684;2023-05-07T06:11:15;14.20;;;6.93;;
3349;SDS011;1688;51.000;13.684;2023-05-07T06:13:48;13.73;;;9.20;;
3349;SDS011;1688;51.000;13.684;2023-05-07T06:16:22;14.57;;;8.30;;
3349;SDS011;1688;51.000;13.684;2023-05-07T06:18:55;11.10;;;8.43;;
3349;SDS011;1688;51.000;13.684;2023-05-07T06:21:28;12.07;;;7.30;;
3349;SDS011;1688;51.000;13.684;2023-05-07T06:24:02;20.87;;;9.43;;
3349;SDS011;1688;51.000;13.684;2023-05-07T06:26:36;13.73;;;5.90;;
3349;SDS011;1688;51.000;13.684;2023-05-07T06:29:09;16.60;;;7.70;;
3349;SDS011;1688;51.000;13.684;2023-05-07T06:31:42;13.97;;;5.93;;
3349;SDS011;1688;51.000;13.684;2023-05-07T06:34:15;16.73;;;7.00;;
3349;SDS011;1688;51.000;13.684;2023-05-07T06:36:49;12.20;;;5.27;;
3349;SDS011;1688;51.000;13.684;2023-05-07T06:39:22;9.57;;;5.60;;
3349;SDS011;1688;51.000;13.684;2023-05-07T06:41:55;13.60;;;5.17;;
3349;SDS011;1688;51.000;13.684;2023-05-07T06:44:28;7.93;;;3.00;;
3349;SDS011;1688;51.000;13.684;2023-05-07T06:47:01;7.80;;;4.77;;
3349;SDS011;1688;51.000;13.684;2023-05-07T06:49:35;14.43;;;7.30;;
3349;SDS011;1688;51.000;13.684;2023-05-07T06:52:08;9.73;;;5.37;;
3349;SDS011;1688;51.000;13.684;2023-05-07T06:54:41;6.40;;;3.40;;
3349;SDS011;1688;51.000;13.684;2023-05-07T06:57:15;11.70;;;4.13;;
3349;SDS011;1688;51.000;13.684;2023-05-07T06:59:48;15.43;;;4.60;;
3349;SDS011;1688;51.000;13.684;2023-05-07T07:02:21;6.40;;;3.80;;
3349;SDS011;1688;51.000;13.684;2023-05-07T07:04:54;11.73;;;6.17;;
3349;SDS011;1688;51.000;13.684;2023-05-07T07:07:28;6.67;;;4.63;;
3349;SDS011;1688;51.000;13.684;2023-05-07T07:10:01;8.23;;;4.40;;
3349;SDS011;1688;51.000;13.684;2023-05-07T07:12:36;7.03;;;4.57;;
3349;SDS011;1688;51.000;13.684;2023-05-07T07:15:09;14.87;;;6.53;;
3349;SDS011;1688;51.000;13.684;2023-05-07T07:17:43;6.17;;;4.33;;
3349;SDS011;1688;51.000;13.684;2023-05-07T07:20:16;3.47;;;3.03;;
3349;SDS011;1688;51.000;13.684;2023-05-07T07:22:49;8.30;;;4.80;;
3349;SDS011;1688;51.000;13.684;2023-05-07T07:25:23;12.10;;;4.77;;
3349;SDS011;1688;51.000;13.684;2023-05-07T07:27:56;5.93;;;5.23;;
3349;SDS011;1688;51.000;13.684;2023-05-07T07:30:29;11.80;;;4.00;;
3349;SDS011;1688;51.000;13.684;2023-05-07T07:33:02;11.83;;;6.80;;
3349;SDS011;1688;51.000;13.684;2023-05-07T07:35:36;4.77;;;2.60;;
3349;SDS011;1688;51.000;13.684;2023-05-07T07:38:09;6.53;;;4.93;;
3349;SDS011;1688;51.000;13.684;2023-05-07T07:40:42;8.13;;;6.43;;
3349;SDS011;1688;51.000;13.684;2023-05-07T07:43:16;3.77;;;2.93;;
3349;SDS011;1688;51.000;13.684;2023-05-07T07:45:49;4.47;;;3.47;;
3349;SDS011;1688;51.000;13.684;2023-05-07T07:48:23;8.67;;;6.07;;
3349;SDS011;1688;51.000;13.684;2023-05-07T07:50:56;9.80;;;6.93;;
3349;SDS011;1688;51.000;13.684;2023-05-07T07:53:30;12.00;;;5.53;;
3349;SDS011;1688;51.000;13.684;2023-05-07T07:56:03;11.27;;;5.00;;
3349;SDS011;1688;51.000;13.684;2023-05-07T07:58:37;12.00;;;6.80;;
3349;SDS011;1688;51.000;13.684;2023-05-07T08:01:11;8.93;;;6.43;;
3349;SDS011;1688;51.000;13.684;2023-05-07T08:03:45;6.47;;;4.63;;
3349;SDS011;1688;51.000;13.684;2023-05-07T08:06:18;7.50;;;5.60;;
3349;SDS011;1688;51.000;13.684;2023-05-07T08:08:51;6.10;;;4.50;;
3349;SDS011;1688;51.000;13.684;2023-05-07T08:11:25;7.60;;;5.20;;
3349;SDS011;1688;51.000;13.684;2023-05-07T08:13:58;7.07;;;3.47;;
3349;SDS011;1688;51.000;13.684;2023-05-07T08:16:31;4.50;;;3.60;;
3349;SDS011;1688;51.000;13.684;2023-05-07T08:19:05;6.83;;;4.73;;
3349;SDS011;1688;51.000;13.684;2023-05-07T08:21:39;6.30;;;3.17;;
3349;SDS011;1688;51.000;13.684;2023-05-07T08:24:13;6.90;;;4.03;;
3349;SDS011;1688;51.000;13.684;2023-05-07T08:26:46;7.33;;;4.07;;
3349;SDS011;1688;51.000;13.684;2023-05-07T08:29:19;4.47;;;4.07;;
3349;SDS011;1688;51.000;13.684;2023-05-07T08:31:53;4.63;;;3.53;;
3349;SDS011;1688;51.000;13.684;2023-05-07T08:34:26;5.00;;;4.13;;
3349;SDS011;1688;51.000;13.684;2023-05-07T08:36:59;4.93;;;3.37;;
3349;SDS011;1688;51.000;13.684;2023-05-07T08:39:32;4.77;;;3.77;;
3349;SDS011;1688;51.000;13.684;2023-05-07T08:42:06;9.63;;;5.20;;
3349;SDS011;1688;51.000;13.684;2023-05-07T08:44:39;5.50;;;3.43;;
3349;SDS011;1688;51.000;13.684;2023-05-07T08:47:13;4.00;;;3.47;;
3349;SDS011;1688;51.000;13.684;2023-05-07T08:49:47;8.90;;;5.13;;
3349;SDS011;1688;51.000;13.684;2023-05-07T08:52:20;3.33;;;2.63;;
3349;SDS011;1688;51.000;13.684;2023-05-07T08:54:54;2.97;;;2.77;;
3349;SDS011;1688;51.000;13.684;2023-05-07T08:57:27;5.30;;;3.17;;
3349;SDS011;1688;51.000;13.684;2023-05-07T09:00:00;6.37;;;4.30;;
3349;SDS011;1688;51.000;13.684;2023-05-07T09:02:35;6.00;;;3.70;;
3349;SDS011;1688;51.000;13.684;2023-05-07T09:05:08;5.90;;;4.10;;
3349;SDS011;1688;51.000;13.684;2023-05-07T09:07:42;3.27;;;2.17;;
3349;SDS011;1688;51.000;13.684;2023-05-07T09:10:16;6.43;;;2.83;;
3349;SDS011;1688;51.000;13.684;2023-05-07T09:12:49;3.43;;;2.40;;
3349;SDS011;1688;51.000;13.684;2023-05-07T09:15:23;3.10;;;2.80;;
3349;SDS011;1688;51.000;13.684;2023-05-07T09:18:00;10.43;;;3.40;;
3349;SDS011;1688;51.000;13.684;2023-05-07T09:20:33;5.57;;;3.67;;
3349;SDS011;1688;51.000;13.684;2023-05-07T09:23:07;5.60;;;3.50;;
3349;SDS011;1688;51.000;13.684;2023-05-07T09:25:40;6.93;;;4.90;;
3349;SDS011;1688;51.000;13.684;2023-05-07T09:28:14;4.80;;;3.93;;
3349;SDS011;1688;51.000;13.684;2023-05-07T09:30:47;6.60;;;4.67;;
3349;SDS011;1688;51.000;13.684;2023-05-07T09:33:20;10.57;;;5.90;;
3349;SDS011;1688;51.000;13.684;2023-05-07T09:35:54;5.80;;;4.03;;
3349;SDS011;1688;51.000;13.684;2023-05-07T09:38:27;8.80;;;3.70;;
3349;SDS011;1688;51.000;13.684;2023-05-07T09:41:07;5.20;;;3.27;;
3349;SDS011;1688;51.000;13.684;2023-05-07T09:43:41;4.90;;;3.53;;
3349;SDS011;1688;51.000;13.684;2023-05-07T09:46:14;6.87;;;5.60;;
3349;SDS011;1688;51.000;13.684;2023-05-07T09:48:49;9.00;;;5.07;;
3349;SDS011;1688;51.000;13.684;2023-05-07T09:51:28;10.63;;;5.17;;
3349;SDS011;1688;51.000;13.684;2023-05-07T09:54:03;10.07;;;5.30;;
3349;SDS011;1688;51.000;13.684;2023-05-07T09:56:37;6.10;;;4.43;;
3349;SDS011;1688;51.000;13.684;2023-05-07T09:59:12;8.93;;;5.90;;
3349;SDS011;1688;51.000;13.684;2023-05-07T10:01:46;7.20;;;5.50;;
3349;SDS011;1688;51.000;13.684;2023-05-07T10:04:19;8.23;;;5.73;;
3349;SDS011;1688;51.000;13.684;2023-05-07T10:06:53;8.13;;;4.50;;
3349;SDS011;1688;51.000;13.684;2023-05-07T10:09:27;6.27;;;4.47;;
3349;SDS011;1688;51.000;13.684;2023-05-07T10:12:01;10.57;;;4.20;;
3349;SDS011;1688;51.000;13.684;2023-05-07T10:14:34;5.97;;;4.17;;
3349;SDS011;1688;51.000;13.684;2023-05-07T10:17:07;7.20;;;3.97;;
3349;SDS011;1688;51.000;13.684;2023-05-07T10:19:41;4.77;;;4.27;;
3349;SDS011;1688;51.000;13.684;2023-05-07T10:22:15;6.80;;;4.43;;
3349;SDS011;1688;51.000;13.684;2023-05-07T10:24:49;5.17;;;4.07;;
3349;SDS011;1688;51.000;13.684;2023-05-07T10:27:26;6.57;;;4.27;;
3349;SDS011;1688;51.000;13.684;2023-05-07T10:30:44;7.20;;;4.23;;
3349;SDS011;1688;51.000;13.684;2023-05-07T10:32:59;10.43;;;5.33;;
3349;SDS011;1688;51.000;13.684;2023-05-07T10:35:38;5.30;;;4.23;;
3349;SDS011;1688;51.000;13.684;2023-05-07T10:38:13;8.17;;;4.67;;
3349;SDS011;1688;51.000;13.684;2023-05-07T10:40:46;5.00;;;4.50;;
3349;SDS011;1688;51.000;13.684;2023-05-07T10:43:20;8.40;;;4.10;;
3349;SDS011;1688;51.000;13.684;2023-05-07T10:46:09;6.43;;;4.83;;
3349;SDS011;1688;51.000;13.684;2023-05-07T10:51:38;8.60;;;4.73;;
3349;SDS011;1688;51.000;13.684;2023-05-07T10:56:46;8.97;;;5.67;;
3349;SDS011;1688;51.000;13.684;2023-05-07T11:01:53;5.73;;;3.80;;
3349;SDS011;1688;51.000;13.684;2023-05-07T11:04:29;6.47;;;3.87;;
3349;SDS011;1688;51.000;13.684;2023-05-07T11:15:11;6.10;;;2.90;;
3349;SDS011;1688;51.000;13.684;2023-05-07T11:17:52;4.90;;;2.93;;
3349;SDS011;1688;51.000;13.684;2023-05-07T11:26:07;6.63;;;3.70;;
3349;SDS011;1688;51.000;13.684;2023-05-07T11:28:41;9.20;;;5.00;;
3349;SDS011;1688;51.000;13.684;2023-05-07T11:31:17;6.90;;;4.23;;
3349;SDS011;1688;51.000;13.684;2023-05-07T11:33:53;5.10;;;4.53;;
3349;SDS011;1688;51.000;13.684;2023-05-07T11:36:31;4.90;;;2.70;;
3349;SDS011;1688;51.000;13.684;2023-05-07T11:39:05;8.53;;;4.10;;
3349;SDS011;1688;51.000;13.684;2023-05-07T11:41:38;7.47;;;4.90;;
3349;SDS011;1688;51.000;13.684;2023-05-07T11:44:11;4.90;;;3.30;;
3349;SDS011;1688;51.000;13.684;2023-05-07T11:46:44;6.13;;;4.03;;
3349;SDS011;1688;51.000;13.684;2023-05-07T11:49:18;7.77;;;3.97;;
3349;SDS011;1688;51.000;13.684;2023-05-07T11:51:51;10.17;;;4.80;;
3349;SDS011;1688;51.000;13.684;2023-05-07T11:54:25;6.20;;;3.63;;
3349;SDS011;1688;51.000;13.684;2023-05-07T11:56:59;7.70;;;3.53;;
3349;SDS011;1688;51.000;13.684;2023-05-07T11:59:39;5.60;;;4.17;;
3349;SDS011;1688;51.000;13.684;2023-05-07T12:02:16;6.80;;;4.70;;
3349;SDS011;1688;51.000;13.684;2023-05-07T12:04:56;8.93;;;4.90;;
3349;SDS011;1688;51.000;13.684;2023-05-07T12:07:33;7.07;;;4.17;;
3349;SDS011;1688;51.000;13.684;2023-05-07T12:10:07;8.53;;;4.87;;
3349;SDS011;1688;51.000;13.684;2023-05-07T12:12:45;5.87;;;3.40;;
3349;SDS011;1688;51.000;13.684;2023-05-07T12:15:22;7.60;;;5.57;;
3349;SDS011;1688;51.000;13.684;2023-05-07T12:17:55;13.07;;;5.67;;
3349;SDS011;1688;51.000;13.684;2023-05-07T12:20:31;9.33;;;3.93;;
3349;SDS011;1688;51.000;13.684;2023-05-07T12:23:05;8.60;;;5.93;;
3349;SDS011;1688;51.000;13.684;2023-05-07T12:25:39;7.27;;;5.43;;
3349;SDS011;1688;51.000;13.684;2023-05-07T12:28:18;4.43;;;3.20;;
3349;SDS011;1688;51.000;13.684;2023-05-07T12:30:52;12.00;;;4.83;;
3349;SDS011;1688;51.000;13.684;2023-05-07T12:33:26;6.40;;;4.70;;
3349;SDS011;1688;51.000;13.684;2023-05-07T12:36:02;5.73;;;3.90;;
3349;SDS011;1688;51.000;13.684;2023-05-07T12:38:37;5.20;;;3.23;;
3349;SDS011;1688;51.000;13.684;2023-05-07T12:41:11;9.43;;;6.30;;
3349;SDS011;1688;51.000;13.684;2023-05-07T12:43:47;5.47;;;3.67;;
3349;SDS011;1688;51.000;13.684;2023-05-07T12:46:20;6.03;;;4.00;;
3349;SDS011;1688;51.000;13.684;2023-05-07T12:48:55;7.30;;;4.97;;
3349;SDS011;1688;51.000;13.684;2023-05-07T12:51:28;7.03;;;4.90;;
3349;SDS011;1688;51.000;13.684;2023-05-07T12:54:02;9.53;;;5.00;;
3349;SDS011;1688;51.000;13.684;2023-05-07T12:56:35;10.93;;;7.30;;
3349;SDS011;1688;51.000;13.684;2023-05-07T12:59:09;6.43;;;4.60;;
3349;SDS011;1688;51.000;13.684;2023-05-07T13:01:43;10.80;;;7.13;;
3349;SDS011;1688;51.000;13.684;2023-05-07T13:04:17;6.33;;;4.57;;
3349;SDS011;1688;51.000;13.684;2023-05-07T13:06:50;4.10;;;3.70;;
3349;SDS011;1688;51.000;13.684;2023-05-07T13:09:23;14.33;;;8.00;;
3349;SDS011;1688;51.000;13.684;2023-05-07T13:11:57;6.03;;;5.10;;
3349;SDS011;1688;51.000;13.684;2023-05-07T13:14:33;14.80;;;8.37;;
3349;SDS011;1688;51.000;13.684;2023-05-07T13:17:07;9.00;;;5.00;;
3349;SDS011;1688;51.000;13.684;2023-05-07T13:19:40;8.47;;;5.70;;
3349;SDS011;1688;51.000;13.684;2023-05-07T13:22:14;6.80;;;4.93;;
3349;SDS011;1688;51.000;13.684;2023-05-07T13:24:47;7.70;;;3.90;;
3349;SDS011;1688;51.000;13.684;2023-05-07T13:27:20;7.00;;;5.40;;
3349;SDS011;1688;51.000;13.684;2023-05-07T13:29:53;4.57;;;3.33;;
3349;SDS011;1688;51.000;13.684;2023-05-07T13:32:26;6.10;;;3.87;;
3349;SDS011;1688;51.000;13.684;2023-05-07T13:35:00;2.80;;;2.60;;
3349;SDS011;1688;51.000;13.684;2023-05-07T13:37:33;4.40;;;3.20;;
3349;SDS011;1688;51.000;13.684;2023-05-07T13:40:07;12.90;;;5.67;;
3349;SDS011;1688;51.000;13.684;2023-05-07T13:42:41;5.60;;;3.30;;
3349;SDS011;1688;51.000;13.684;2023-05-07T13:45:14;5.93;;;3.93;;
3349;SDS011;1688;51.000;13.684;2023-05-07T13:47:47;4.27;;;3.33;;
3349;SDS011;1688;51.000;13.684;2023-05-07T13:50:21;7.07;;;3.60;;
3349;SDS011;1688;51.000;13.684;2023-05-07T13:52:55;8.73;;;5.33;;
3349;SDS011;1688;51.000;13.684;2023-05-07T13:55:28;6.97;;;4.93;;
3349;SDS011;1688;51.000;13.684;2023-05-07T13:58:02;4.23;;;3.83;;
3349;SDS011;1688;51.000;13.684;2023-05-07T14:00:38;4.70;;;3.23;;
3349;SDS011;1688;51.000;13.684;2023-05-07T14:03:11;7.67;;;5.13;;
3349;SDS011;1688;51.000;13.684;2023-05-07T14:05:45;4.07;;;3.67;;
3349;SDS011;1688;51.000;13.684;2023-05-07T14:08:21;4.90;;;4.43;;
3349;SDS011;1688;51.000;13.684;2023-05-07T14:10:55;3.97;;;3.20;;
3349;SDS011;1688;51.000;13.684;2023-05-07T14:13:28;4.53;;;4.13;;
3349;SDS011;1688;51.000;13.684;2023-05-07T14:16:03;6.93;;;4.63;;
3349;SDS011;1688;51.000;13.684;2023-05-07T14:18:37;3.33;;;2.70;;
3349;SDS011;1688;51.000;13.684;2023-05-07T14:21:10;7.87;;;4.00;;
3349;SDS011;1688;51.000;13.684;2023-05-07T14:23:43;5.63;;;3.30;;
3349;SDS011;1688;51.000;13.684;2023-05-07T14:26:17;10.77;;;4.73;;
3349;SDS011;1688;51.000;13.684;2023-05-07T14:28:51;4.30;;;2.87;;
3349;SDS011;1688;51.000;13.684;2023-05-07T14:31:24;6.90;;;4.37;;
3349;SDS011;1688;51.000;13.684;2023-05-07T14:33:58;4.23;;;3.30;;
3349;SDS011;1688;51.000;13.684;2023-05-07T14:36:31;3.10;;;2.63;;
3349;SDS011;1688;51.000;13.684;2023-05-07T14:39:05;5.10;;;3.87;;
3349;SDS011;1688;51.000;13.684;2023-05-07T14:41:38;5.07;;;2.97;;
3349;SDS011;1688;51.000;13.684;2023-05-07T14:44:11;4.53;;;3.53;;
3349;SDS011;1688;51.000;13.684;2023-05-07T14:46:44;2.90;;;2.63;;
3349;SDS011;1688;51.000;13.684;2023-05-07T14:49:18;4.43;;;3.00;;
3349;SDS011;1688;51.000;13.684;2023-05-07T14:51:51;4.60;;;3.40;;
3349;SDS011;1688;51.000;13.684;2023-05-07T14:54:24;5.00;;;4.13;;
3349;SDS011;1688;51.000;13.684;2023-05-07T14:56:57;3.13;;;2.50;;
3349;SDS011;1688;51.000;13.684;2023-05-07T14:59:31;4.00;;;2.47;;
3349;SDS011;1688;51.000;13.684;2023-05-07T15:02:05;4.07;;;3.17;;
3349;SDS011;1688;51.000;13.684;2023-05-07T15:04:40;6.33;;;4.40;;
3349;SDS011;1688;51.000;13.684;2023-05-07T15:07:18;12.27;;;3.87;;
3349;SDS011;1688;51.000;13.684;2023-05-07T15:09:51;4.00;;;3.03;;
3349;SDS011;1688;51.000;13.684;2023-05-07T15:12:24;4.10;;;3.30;;
3349;SDS011;1688;51.000;13.684;2023-05-07T15:14:58;2.93;;;2.37;;
3349;SDS011;1688;51.000;13.684;2023-05-07T15:17:31;6.17;;;4.33;;
3349;SDS011;1688;51.000;13.684;2023-05-07T15:20:04;4.33;;;3.90;;
3349;SDS011;1688;51.000;13.684;2023-05-07T15:22:38;6.20;;;4.20;;
3349;SDS011;1688;51.000;13.684;2023-05-07T15:25:11;3.30;;;3.00;;
3349;SDS011;1688;51.000;13.684;2023-05-07T15:27:44;5.67;;;3.00;;
3349;SDS011;1688;51.000;13.684;2023-05-07T15:30:18;6.70;;;3.80;;
3349;SDS011;1688;51.000;13.684;2023-05-07T15:32:52;5.80;;;3.57;;
3349;SDS011;1688;51.000;13.684;2023-05-07T15:35:25;4.30;;;2.80;;
3349;SDS011;1688;51.000;13.684;2023-05-07T15:37:59;6.47;;;3.40;;
3349;SDS011;1688;51.000;13.684;2023-05-07T15:40:35;9.50;;;5.87;;
3349;SDS011;1688;51.000;13.684;2023-05-07T15:43:13;6.60;;;4.40;;
3349;SDS011;1688;51.000;13.684;2023-05-07T15:45:50;4.67;;;3.37;;
3349;SDS011;1688;51.000;13.684;2023-05-07T15:48:23;7.40;;;4.67;;
3349;SDS011;1688;51.000;13.684;2023-05-07T15:50:56;5.40;;;4.30;;
3349;SDS011;1688;51.000;13.684;2023-05-07T15:53:30;7.63;;;4.77;;
3349;SDS011;1688;51.000;13.684;2023-05-07T15:56:03;6.03;;;5.43;;
3349;SDS011;1688;51.000;13.684;2023-05-07T15:58:36;5.83;;;2.57;;
3349;SDS011;1688;51.000;13.684;2023-05-07T16:01:10;7.33;;;3.67;;